Time;durP1;ratioP1;P1;durP2;ratioP2;P2;SDS_P1;SDS_P2;PMS_P1;PMS_P2;Temp;Humidity;BMP_temperature;BMP_pressure;BME280_temperature;BME280_humidity;BME280_pressure;Samples;Min_cycle;Max_cycle;Signal;HPM_P1;HPM_P2
2022/01/17 00:01:09;;;;;;;0.60;0.60;;;;;;;5.66;71.99;103286.44;5050553;28;20108;-72
2022/01/17 00:03:35;;;;;;;0.50;0.50;;;;;;;5.61;71.58;103288.63;5049169;28;20037;-73
2022/01/17 00:06:00;;;;;;;0.50;0.50;;;;;;;5.55;71.52;103285.50;5043626;28;20031;-74
2022/01/17 00:08:26;;;;;;;0.50;0.50;;;;;;;5.49;71.59;103280.66;5041404;28;20025;-75
2022/01/17 00:10:52;;;;;;;0.60;0.60;;;;;;;5.45;71.60;103282.09;5057895;28;20025;-73
2022/01/17 00:13:26;;;;;;;0.40;0.40;;;;;;;5.42;71.55;103279.19;5041394;28;20025;-73
2022/01/17 00:15:57;;;;;;;0.60;0.60;;;;;;;5.38;71.81;103279.72;5039145;28;20037;-72
2022/01/17 00:18:40;;;;;;;0.50;0.50;;;;;;;5.32;71.15;103279.16;5050509;28;20025;-73
2022/01/17 00:21:06;;;;;;;0.50;0.50;;;;;;;5.25;71.24;103294.97;5060603;28;20031;-72
2022/01/17 00:23:32;;;;;;;0.47;0.47;;;;;;;5.22;71.75;103293.94;5055688;28;20108;-72
2022/01/17 00:25:57;;;;;;;0.50;0.50;;;;;;;5.17;71.76;103303.00;5040614;28;20697;-72
2022/01/17 00:28:23;;;;;;;0.70;0.70;;;;;;;5.09;72.64;103298.78;5052623;28;20041;-72
2022/01/17 00:30:48;;;;;;;0.57;0.57;;;;;;;5.02;72.34;103297.34;5059233;28;20021;-74
2022/01/17 00:33:14;;;;;;;0.50;0.50;;;;;;;5.02;72.67;103309.41;5041885;28;20296;-72
2022/01/17 00:35:39;;;;;;;0.57;0.57;;;;;;;4.98;73.00;103312.50;5040306;28;20078;-72
2022/01/17 00:38:05;;;;;;;0.40;0.40;;;;;;;4.95;72.82;103303.66;5046431;28;20034;-71
2022/01/17 00:40:31;;;;;;;0.40;0.40;;;;;;;4.93;72.77;103299.09;5057209;28;20040;-73
2022/01/17 00:42:56;;;;;;;0.50;0.50;;;;;;;4.90;72.68;103291.00;5051874;28;20025;-73
2022/01/17 00:45:27;;;;;;;0.50;0.50;;;;;;;4.88;73.13;103288.31;5041232;28;20029;-72
2022/01/17 00:47:56;;;;;;;0.40;0.40;;;;;;;4.85;73.23;103282.81;5056229;28;20075;-73
2022/01/17 00:50:22;;;;;;;0.50;0.50;;;;;;;4.85;72.95;103290.59;5059701;28;20044;-72
2022/01/17 00:52:48;;;;;;;0.40;0.40;;;;;;;4.87;73.00;103301.13;5044483;28;20022;-72
2022/01/17 00:55:13;;;;;;;0.40;0.40;;;;;;;4.85;72.63;103300.09;5039992;28;20426;-73
2022/01/17 00:57:40;;;;;;;0.50;0.50;;;;;;;4.79;73.21;103298.75;5052468;28;20021;-73
2022/01/17 01:00:10;;;;;;;0.50;0.50;;;;;;;4.77;73.06;103292.50;5060988;28;20307;-72
2022/01/17 01:02:35;;;;;;;0.43;0.43;;;;;;;4.77;73.14;103294.19;5044792;28;20201;-74
2022/01/17 01:05:01;;;;;;;0.40;0.40;;;;;;;4.75;72.96;103293.13;5040792;28;20128;-73
2022/01/17 01:07:26;;;;;;;0.43;0.43;;;;;;;4.67;74.06;103287.25;5040807;28;20045;-74
2022/01/17 01:10:04;;;;;;;0.50;0.50;;;;;;;4.63;74.38;103272.16;5042935;28;20384;-73
2022/01/17 01:12:29;;;;;;;0.50;0.50;;;;;;;4.61;74.50;103277.19;5058651;28;20048;-72
2022/01/17 01:14:55;;;;;;;0.57;0.57;;;;;;;4.63;73.64;103279.94;5046535;28;20136;-74
2022/01/17 01:17:36;;;;;;;0.40;0.40;;;;;;;4.62;74.05;103284.22;5051214;28;20334;-73
2022/01/17 01:28:20;;;;;;;0.50;0.50;;;;;;;4.57;74.90;103288.09;5056913;28;20455;-72
2022/01/17 01:30:49;;;;;;;0.50;0.50;;;;;;;4.54;74.75;103305.94;5059331;28;20124;-72
2022/01/17 01:33:25;;;;;;;0.50;0.50;;;;;;;4.53;74.87;103311.91;5043617;28;20021;-74
2022/01/17 01:35:58;;;;;;;;;;;;;;;4.55;74.35;103307.81;5040276;28;20029;-71
2022/01/17 01:38:23;;;;;;;0.30;0.30;;;;;;;4.53;74.19;103309.31;5043712;28;19938;-72
2022/01/17 01:40:48;;;;;;;0.47;0.47;;;;;;;4.53;74.91;103317.09;5052961;28;20029;-72
2022/01/17 01:43:14;;;;;;;0.50;0.50;;;;;;;4.51;75.43;103316.06;5039249;28;20028;-73
2022/01/17 01:45:39;;;;;;;0.40;0.40;;;;;;;4.51;75.21;103319.56;5039745;28;20040;-71
2022/01/17 01:48:06;;;;;;;0.40;0.40;;;;;;;4.49;75.71;103315.91;5041310;28;20331;-72
2022/01/17 01:50:31;;;;;;;0.40;0.40;;;;;;;4.46;75.76;103317.31;5043047;28;20026;-72
2022/01/17 01:52:57;;;;;;;0.33;0.33;;;;;;;4.42;76.10;103316.09;5045358;28;20048;-73
2022/01/17 01:55:22;;;;;;;0.40;0.40;;;;;;;4.41;75.98;103329.84;5039038;28;20025;-72
2022/01/17 01:57:48;;;;;;;0.47;0.47;;;;;;;4.42;76.35;103325.59;5038804;28;20366;-72
2022/01/17 02:00:15;;;;;;;0.40;0.40;;;;;;;4.37;76.74;103325.16;5039745;28;20037;-72
2022/01/17 02:02:41;;;;;;;0.50;0.50;;;;;;;4.31;77.07;103324.56;5038549;28;20057;-72
2022/01/17 02:05:07;;;;;;;0.40;0.40;;;;;;;4.29;77.18;103327.00;5041132;28;20025;-70
2022/01/17 02:07:33;;;;;;;0.33;0.33;;;;;;;4.29;77.25;103313.16;5044884;28;20097;-71
2022/01/17 02:09:58;;;;;;;0.27;0.27;;;;;;;4.22;78.42;103314.22;5052505;28;20044;-72
2022/01/17 02:12:25;;;;;;;0.40;0.40;;;;;;;4.15;78.77;103317.94;5053468;28;20025;-73
2022/01/17 02:14:53;;;;;;;0.43;0.43;;;;;;;4.08;79.06;103311.28;5039303;28;20029;-71
2022/01/17 02:17:23;;;;;;;0.60;0.60;;;;;;;4.00;79.17;103299.25;5021869;28;20164;-71
2022/01/17 02:19:52;;;;;;;0.37;0.37;;;;;;;3.94;80.15;103306.44;5042247;28;20049;-72
2022/01/17 02:22:17;;;;;;;0.50;0.50;;;;;;;3.88;80.10;103299.00;5053310;28;20041;-71
2022/01/17 02:24:42;;;;;;;0.47;0.47;;;;;;;3.82;80.15;103293.22;5057183;28;20028;-71
2022/01/17 02:27:08;;;;;;;0.40;0.40;;;;;;;3.77;80.63;103300.56;5050194;28;20082;-73
2022/01/17 02:29:33;;;;;;;0.40;0.40;;;;;;;3.75;81.17;103312.47;5038881;28;20036;-72
2022/01/17 02:31:59;;;;;;;0.20;0.20;;;;;;;3.76;81.60;103309.13;5044076;28;20056;-72
2022/01/17 02:34:24;;;;;;;0.30;0.30;;;;;;;3.80;81.93;103315.50;5047673;28;20035;-72
2022/01/17 02:36:49;;;;;;;0.30;0.30;;;;;;;3.79;82.11;103305.91;5056072;28;20056;-71
2022/01/17 02:39:15;;;;;;;0.43;0.43;;;;;;;3.81;82.04;103309.56;5057740;28;20017;-73
2022/01/17 02:41:43;;;;;;;0.27;0.27;;;;;;;3.82;82.13;103301.94;5051570;28;20022;-72
2022/01/17 02:44:09;;;;;;;0.40;0.40;;;;;;;3.85;82.94;103315.19;5044299;28;20021;-71
2022/01/17 02:46:34;;;;;;;0.30;0.30;;;;;;;3.85;82.28;103317.78;5040536;28;20037;-71
2022/01/17 02:49:01;;;;;;;0.23;0.23;;;;;;;3.87;83.00;103314.41;5052788;28;20369;-71
2022/01/17 02:51:27;;;;;;;0.40;0.40;;;;;;;3.87;83.39;103315.34;5046269;28;20544;-73
2022/01/17 02:53:53;;;;;;;0.30;0.30;;;;;;;3.85;83.37;103317.78;5037905;28;20040;-71
2022/01/17 02:56:18;;;;;;;0.40;0.40;;;;;;;3.85;83.47;103320.38;5040826;28;20024;-70
2022/01/17 02:58:44;;;;;;;0.40;0.40;;;;;;;3.88;83.62;103319.75;5057555;28;20291;-71
2022/01/17 03:01:14;;;;;;;0.30;0.30;;;;;;;3.91;83.75;103319.13;5049496;28;20044;-71
2022/01/17 03:03:41;;;;;;;0.20;0.20;;;;;;;3.89;83.52;103320.66;5056662;28;20031;-71
2022/01/17 03:06:07;;;;;;;0.30;0.30;;;;;;;3.86;83.82;103329.03;5055207;28;20028;-71
2022/01/17 03:08:33;;;;;;;0.30;0.30;;;;;;;3.83;83.88;103329.69;5037789;28;20418;-72
2022/01/17 03:11:01;;;;;;;0.40;0.40;;;;;;;3.80;84.24;103333.66;5048641;28;20475;-73
2022/01/17 03:13:33;;;;;;;0.30;0.30;;;;;;;3.81;84.05;103332.88;5020696;28;20013;-71
2022/01/17 03:16:12;;;;;;;0.37;0.37;;;;;;;3.83;84.85;103326.16;5038555;28;20056;-72
2022/01/17 03:18:40;;;;;;;0.20;0.20;;;;;;;3.97;85.29;103319.69;5051616;28;20316;-71
2022/01/17 03:21:08;;;;;;;0.30;0.30;;;;;;;4.02;85.70;103308.09;5038216;28;20025;-75
2022/01/17 03:23:34;;;;;;;0.20;0.20;;;;;;;4.10;85.76;103316.59;5037331;28;20392;-72
2022/01/17 03:25:59;;;;;;;0.30;0.30;;;;;;;4.08;85.90;103310.34;5056636;28;20029;-72
2022/01/17 03:28:25;;;;;;;0.40;0.40;;;;;;;4.06;85.75;103304.09;5037751;28;20021;-72
2022/01/17 03:30:51;;;;;;;0.20;0.20;;;;;;;4.05;86.02;103308.38;5053991;28;20021;-72
2022/01/17 03:33:20;;;;;;;0.10;0.10;;;;;;;4.10;85.81;103301.94;5046351;28;20021;-72
2022/01/17 03:35:46;;;;;;;0.30;0.30;;;;;;;4.13;86.17;103301.34;5036669;28;20037;-71
2022/01/17 03:38:15;;;;;;;0.20;0.20;;;;;;;4.11;86.44;103280.44;5042623;28;20020;-72
2022/01/17 03:40:41;;;;;;;0.20;0.20;;;;;;;4.08;86.32;103298.31;5057453;28;20036;-72
2022/01/17 03:43:07;;;;;;;0.20;0.20;;;;;;;4.08;86.48;103300.91;5057225;28;20078;-71
2022/01/17 03:45:33;;;;;;;0.20;0.20;;;;;;;4.07;86.72;103308.53;5056006;28;20041;-71
2022/01/17 03:47:58;;;;;;;0.20;0.20;;;;;;;4.05;86.62;103310.97;5023070;28;20108;-72
2022/01/17 03:50:26;;;;;;;0.30;0.30;;;;;;;4.04;86.38;103303.97;5057241;28;20025;-71
2022/01/17 03:52:51;;;;;;;0.27;0.27;;;;;;;4.03;86.96;103291.75;5042989;28;20013;-72
2022/01/17 03:55:22;;;;;;;0.30;0.30;;;;;;;4.02;87.12;103292.53;5036957;28;20037;-72
2022/01/17 03:57:48;;;;;;;0.20;0.20;;;;;;;4.00;87.20;103291.47;5042141;28;20021;-72
2022/01/17 04:00:22;;;;;;;0.20;0.20;;;;;;;4.00;87.56;103281.13;5053598;28;20582;-70
2022/01/17 04:02:48;;;;;;;0.20;0.20;;;;;;;4.01;87.47;103293.31;5048758;28;20029;-71
2022/01/17 04:05:14;;;;;;;0.13;0.13;;;;;;;4.02;87.83;103295.13;5050821;28;20064;-72
2022/01/17 04:07:39;;;;;;;0.20;0.20;;;;;;;4.01;87.92;103302.75;5036905;28;20120;-72
2022/01/17 04:10:05;;;;;;;0.20;0.20;;;;;;;4.01;87.96;103306.28;5047707;28;20068;-71
2022/01/17 04:12:30;;;;;;;0.20;0.20;;;;;;;4.04;87.98;103296.19;5042896;28;20410;-72
2022/01/17 04:14:56;;;;;;;0.20;0.20;;;;;;;4.05;88.00;103305.78;5037437;28;20422;-71
2022/01/17 04:17:28;;;;;;;0.37;0.37;;;;;;;4.06;87.47;103309.28;5048537;28;20032;-72
2022/01/17 04:20:03;;;;;;;0.10;0.10;;;;;;;4.06;88.05;103312.78;5051827;28;20075;-71
2022/01/17 04:22:29;;;;;;;0.20;0.20;;;;;;;4.08;88.05;103319.06;5055949;28;20037;-72
2022/01/17 04:24:54;;;;;;;0.20;0.20;;;;;;;4.09;88.24;103319.94;5056148;28;20033;-72
2022/01/17 04:27:19;;;;;;;0.10;0.10;;;;;;;4.11;88.17;103332.28;5047905;28;20597;-72
2022/01/17 04:29:45;;;;;;;0.33;0.33;;;;;;;4.15;88.43;103329.97;5044654;28;20040;-73
2022/01/17 04:32:10;;;;;;;0.13;0.13;;;;;;;4.16;88.31;103339.63;5046142;28;20033;-72
2022/01/17 04:34:39;;;;;;;0.20;0.20;;;;;;;4.15;88.36;103342.94;5038022;28;20076;-72
2022/01/17 04:37:04;;;;;;;0.30;0.30;;;;;;;4.12;88.25;103338.41;5036748;28;20067;-72
2022/01/17 04:39:29;;;;;;;0.23;0.23;;;;;;;4.10;88.01;103340.84;5035828;28;20021;-71
2022/01/17 04:41:56;;;;;;;0.20;0.20;;;;;;;4.07;87.86;103339.63;5044563;28;20100;-71
2022/01/17 04:47:06;;;;;;;0.20;0.20;;;;;;;4.05;88.89;103329.13;5056336;28;20040;-72
2022/01/17 04:49:31;;;;;;;0.30;0.30;;;;;;;4.08;88.33;103331.09;5059183;28;20020;-72
2022/01/17 04:51:57;;;;;;;0.30;0.30;;;;;;;4.05;88.25;103328.22;5050614;28;20087;-71
2022/01/17 04:54:39;;;;;;;0.37;0.37;;;;;;;4.01;87.80;103331.28;5039902;28;20022;-71
2022/01/17 04:57:05;;;;;;;0.20;0.20;;;;;;;3.97;88.31;103337.84;5041220;28;20045;-71
2022/01/17 04:59:30;;;;;;;0.20;0.20;;;;;;;3.97;88.39;103340.44;5039996;28;20403;-72
2022/01/17 05:01:56;;;;;;;0.23;0.23;;;;;;;3.94;88.36;103338.47;5039668;28;20026;-72
2022/01/17 05:04:21;;;;;;;0.20;0.20;;;;;;;3.91;88.54;103342.47;5058844;28;20029;-69
2022/01/17 05:06:47;;;;;;;0.10;0.10;;;;;;;3.88;88.26;103345.69;5052691;28;20085;-70
2022/01/17 05:09:12;;;;;;;0.20;0.20;;;;;;;3.87;88.19;103348.09;5056706;28;20021;-70
2022/01/17 05:11:37;;;;;;;0.20;0.20;;;;;;;3.87;88.74;103342.94;5053010;28;20037;-71
2022/01/17 05:14:03;;;;;;;0.30;0.30;;;;;;;3.89;88.77;103346.56;5054504;28;20028;-71
2022/01/17 05:16:39;;;;;;;0.40;0.40;;;;;;;3.95;89.18;103345.50;5048510;28;20018;-71
2022/01/17 05:21:48;;;;;;;0.10;0.10;;;;;;;4.15;89.16;103350.72;5052035;28;20083;-71
2022/01/17 05:24:14;;;;;;;0.10;0.10;;;;;;;4.24;88.83;103362.91;5038871;28;20025;-72
2022/01/17 05:26:39;;;;;;;0.20;0.20;;;;;;;4.33;89.01;103355.09;5043240;28;20033;-71
2022/01/17 05:29:04;;;;;;;0.20;0.20;;;;;;;4.41;88.83;103355.78;5040204;28;20060;-71
2022/01/17 05:31:30;;;;;;;0.17;0.17;;;;;;;4.43;88.53;103356.88;5038795;28;20033;-71
2022/01/17 05:33:55;;;;;;;0.20;0.20;;;;;;;4.51;88.51;103358.50;5038422;28;20606;-71
2022/01/17 05:36:21;;;;;;;0.20;0.20;;;;;;;4.56;88.51;103358.00;5039414;28;20038;-70
2022/01/17 05:38:46;;;;;;;0.10;0.10;;;;;;;4.61;88.19;103352.47;5039519;28;20039;-70
2022/01/17 05:41:11;;;;;;;0.20;0.20;;;;;;;4.61;88.07;103349.88;5039900;28;20044;-71
2022/01/17 05:43:37;;;;;;;0.67;0.40;;;;;;;4.63;88.20;103342.22;5038593;28;20059;-71
2022/01/17 05:46:02;;;;;;;0.30;0.30;;;;;;;4.63;87.87;103334.44;5038967;28;20071;-70
2022/01/17 05:48:27;;;;;;;0.17;0.17;;;;;;;4.64;87.89;103334.59;5038361;28;20029;-72
2022/01/17 05:50:53;;;;;;;0.30;0.30;;;;;;;4.67;87.89;103333.97;5039655;28;20064;-71
2022/01/17 05:53:18;;;;;;;0.20;0.20;;;;;;;4.62;87.62;103332.63;5039664;28;20055;-71
2022/01/17 05:55:44;;;;;;;0.27;0.27;;;;;;;4.60;87.66;103342.84;5058749;28;20033;-72
2022/01/17 05:58:11;;;;;;;0.20;0.20;;;;;;;4.61;87.66;103342.09;5039489;28;20090;-71
2022/01/17 06:00:36;;;;;;;0.10;0.10;;;;;;;4.64;87.76;103351.84;5038686;28;20275;-70
2022/01/17 06:03:01;;;;;;;0.10;0.10;;;;;;;4.63;87.52;103350.94;5048438;28;20035;-70
2022/01/17 06:05:27;;;;;;;0.20;0.20;;;;;;;4.62;87.54;103353.41;5043529;28;20041;-77
2022/01/17 06:07:52;;;;;;;1.17;0.70;;;;;;;4.61;87.49;103352.47;5038899;28;20040;-71
2022/01/17 06:10:17;;;;;;;0.13;0.13;;;;;;;4.61;87.28;103360.25;5039919;28;20053;-70
2022/01/17 06:12:43;;;;;;;0.10;0.10;;;;;;;4.63;87.53;103370.78;5048377;28;20021;-70
2022/01/17 06:15:09;;;;;;;0.30;0.30;;;;;;;4.64;87.52;103377.81;5047465;28;20087;-69
2022/01/17 06:17:34;;;;;;;0.30;0.30;;;;;;;4.62;87.55;103368.97;5045248;28;20021;-70
2022/01/17 06:20:00;;;;;;;0.23;0.23;;;;;;;4.62;87.35;103377.66;5047836;28;20124;-72
2022/01/17 06:22:26;;;;;;;0.20;0.20;;;;;;;4.60;87.24;103386.97;5041839;28;20049;-71
2022/01/17 06:24:52;;;;;;;0.20;0.20;;;;;;;4.64;86.92;103391.69;5039147;28;20033;-74
2022/01/17 06:27:18;;;;;;;0.20;0.20;;;;;;;4.66;86.81;103384.97;5038537;28;20028;-71
2022/01/17 06:29:43;;;;;;;0.40;0.40;;;;;;;4.64;86.26;103385.59;5038682;28;20378;-70
2022/01/17 06:32:08;;;;;;;0.20;0.20;;;;;;;4.61;86.35;103387.91;5038008;28;20033;-71
2022/01/17 06:34:34;;;;;;;0.20;0.20;;;;;;;4.61;86.42;103380.13;5037750;28;20311;-71
2022/01/17 06:36:59;;;;;;;0.30;0.30;;;;;;;4.59;86.32;103389.41;5037800;28;20029;-71
2022/01/17 06:39:25;;;;;;;0.20;0.20;;;;;;;4.60;86.22;103399.06;5038749;28;20033;-71
2022/01/17 06:41:50;;;;;;;0.40;0.40;;;;;;;4.62;86.15;103401.00;5054887;28;20076;-72
2022/01/17 06:44:16;;;;;;;0.40;0.40;;;;;;;4.63;85.75;103391.56;5041109;28;20040;-72
2022/01/17 06:46:42;;;;;;;0.40;0.40;;;;;;;4.63;85.60;103381.16;5046655;28;20033;-71
2022/01/17 06:49:08;;;;;;;0.60;0.60;;;;;;;4.62;85.51;103388.03;5038505;28;20075;-71
2022/01/17 06:51:34;;;;;;;0.40;0.40;;;;;;;4.63;85.56;103389.88;5038161;28;20025;-73
2022/01/17 06:54:00;;;;;;;0.40;0.40;;;;;;;4.63;85.19;103404.53;5038418;28;20033;-73
2022/01/17 06:56:25;;;;;;;0.30;0.30;;;;;;;4.60;85.00;103410.34;5038921;28;20041;-71
2022/01/17 06:58:51;;;;;;;0.73;0.73;;;;;;;4.58;84.72;103427.44;5037873;28;20025;-72
2022/01/17 07:01:18;;;;;;;0.40;0.40;;;;;;;4.57;84.32;103424.69;5040619;28;20242;-70
2022/01/17 07:03:43;;;;;;;0.40;0.40;;;;;;;4.53;84.33;103434.81;5057954;28;20021;-72
2022/01/17 07:06:09;;;;;;;0.30;0.30;;;;;;;4.52;84.36;103460.59;5057232;28;20040;-75
2022/01/17 07:08:35;;;;;;;0.40;0.40;;;;;;;4.49;84.42;103447.34;5056782;28;20055;-72
2022/01/17 07:11:00;;;;;;;0.30;0.30;;;;;;;4.47;84.26;103438.47;5057553;28;20033;-70
2022/01/17 07:13:26;;;;;;;0.40;0.40;;;;;;;4.47;84.12;103444.59;5056017;28;20025;-71
2022/01/17 07:15:51;;;;;;;0.30;0.30;;;;;;;4.47;84.03;103446.25;5047615;28;20026;-72
2022/01/17 07:18:16;;;;;;;0.40;0.40;;;;;;;4.45;83.96;103448.75;5057117;28;20112;-74
2022/01/17 07:20:42;;;;;;;0.40;0.40;;;;;;;4.45;83.96;103434.84;5041167;28;20049;-72
2022/01/17 07:23:07;;;;;;;0.23;0.23;;;;;;;4.44;84.11;103446.00;5039081;28;20030;-72
2022/01/17 07:25:33;;;;;;;0.30;0.30;;;;;;;4.45;84.17;103437.44;5053728;28;20029;-71
2022/01/17 07:27:58;;;;;;;0.40;0.40;;;;;;;4.48;84.19;103441.22;5043782;28;20303;-72
2022/01/17 07:30:23;;;;;;;0.40;0.40;;;;;;;4.57;83.94;103445.47;5037053;28;20040;-70
2022/01/17 07:32:52;;;;;;;0.40;0.40;;;;;;;4.59;83.74;103450.03;5038740;28;20025;-73
2022/01/17 07:35:17;;;;;;;0.20;0.20;;;;;;;4.60;83.38;103469.13;5039228;28;20041;-73
2022/01/17 07:37:42;;;;;;;0.23;0.23;;;;;;;4.63;83.42;103472.00;5037010;28;20013;-71
2022/01/17 07:40:09;;;;;;;0.30;0.30;;;;;;;4.66;83.30;103478.41;5044768;28;20067;-72
2022/01/17 07:42:34;;;;;;;0.30;0.30;;;;;;;4.68;83.36;103473.38;5045283;28;20080;-73
2022/01/17 07:45:09;;;;;;;0.50;0.50;;;;;;;4.74;82.72;103478.22;5035949;28;20061;-72
2022/01/17 07:50:07;;;;;;;0.40;0.40;;;;;;;4.77;82.71;103465.53;5044887;28;20055;-72
2022/01/17 07:52:33;;;;;;;0.30;0.30;;;;;;;4.79;82.75;103477.88;5041752;28;20041;-71
2022/01/17 07:54:58;;;;;;;0.30;0.30;;;;;;;4.81;83.27;103485.81;5036844;28;20057;-72
2022/01/17 07:57:24;;;;;;;0.30;0.30;;;;;;;4.84;83.20;103493.00;5036850;28;20072;-71
2022/01/17 07:59:52;;;;;;;0.40;0.40;;;;;;;4.85;83.13;103494.81;5035848;28;20018;-71
2022/01/17 08:02:17;;;;;;;0.40;0.40;;;;;;;4.87;82.92;103483.81;5053423;28;20044;-70
2022/01/17 08:04:42;;;;;;;0.30;0.30;;;;;;;4.88;83.26;103477.84;5044680;28;20025;-71
2022/01/17 08:07:08;;;;;;;0.30;0.30;;;;;;;4.91;83.64;103487.59;5037127;28;20045;-71
2022/01/17 08:09:34;;;;;;;0.30;0.30;;;;;;;4.97;83.22;103487.28;5043280;28;20029;-71
2022/01/17 08:12:01;;;;;;;0.40;0.40;;;;;;;5.00;83.49;103490.16;5050463;28;20029;-72
2022/01/17 08:14:27;;;;;;;0.50;0.50;;;;;;;5.04;83.46;103489.69;5036571;28;20025;-70
2022/01/17 08:16:53;;;;;;;0.30;0.30;;;;;;;5.05;83.24;103502.78;5036234;28;20025;-72
2022/01/17 08:19:21;;;;;;;0.40;0.40;;;;;;;5.04;83.46;103500.97;5036520;28;20029;-71
2022/01/17 08:21:47;;;;;;;0.40;0.40;;;;;;;5.06;83.65;103494.22;5039221;28;20064;-73
2022/01/17 08:24:13;;;;;;;0.40;0.40;;;;;;;5.11;83.73;103499.84;5040487;28;20021;-71
2022/01/17 08:26:42;;;;;;;0.30;0.30;;;;;;;5.18;83.00;103491.84;5041167;28;20030;-72
2022/01/17 08:29:09;;;;;;;0.40;0.40;;;;;;;5.20;83.17;103499.78;5040355;28;20078;-69
2022/01/17 08:31:34;;;;;;;0.27;0.27;;;;;;;5.23;83.04;103507.88;5039837;28;20057;-69
2022/01/17 08:34:00;;;;;;;0.40;0.40;;;;;;;5.24;83.46;103509.72;5040182;28;20025;-71
2022/01/17 08:36:25;;;;;;;0.30;0.30;;;;;;;5.26;83.11;103497.78;5045942;28;20033;-70
2022/01/17 08:38:50;;;;;;;0.40;0.40;;;;;;;5.29;82.89;103495.44;5039640;28;20021;-71
2022/01/17 08:41:18;;;;;;;0.30;0.30;;;;;;;5.33;82.94;103491.44;5040107;28;20025;-71
2022/01/17 08:43:43;;;;;;;0.30;0.30;;;;;;;5.38;82.81;103489.28;5039535;28;20087;-73
2022/01/17 08:46:08;;;;;;;0.40;0.40;;;;;;;5.43;82.54;103493.22;5044027;28;20051;-69
2022/01/17 08:48:34;;;;;;;0.40;0.40;;;;;;;5.48;82.46;103494.56;5059262;28;20096;-70
2022/01/17 08:50:59;;;;;;;0.30;0.30;;;;;;;5.50;82.52;103509.50;5059698;28;20094;-74
2022/01/17 08:53:26;;;;;;;0.20;0.20;;;;;;;5.51;82.31;103502.63;5045844;28;20024;-74
2022/01/17 08:55:52;;;;;;;0.30;0.30;;;;;;;5.57;82.13;103503.22;5044324;28;20021;-71
2022/01/17 08:58:17;;;;;;;0.40;0.40;;;;;;;5.63;81.50;103510.66;5059360;28;20028;-73
2022/01/17 09:00:43;;;;;;;0.40;0.40;;;;;;;5.67;82.28;103517.94;5047178;28;20405;-71
2022/01/17 09:03:10;;;;;;;0.40;0.40;;;;;;;5.68;82.64;103518.88;5047509;28;20108;-72
2022/01/17 09:05:36;;;;;;;0.30;0.30;;;;;;;5.70;81.95;103522.50;5040316;28;20017;-70
2022/01/17 09:08:03;;;;;;;0.30;0.30;;;;;;;5.71;82.27;103527.84;5039203;28;20029;-70
2022/01/17 09:10:29;;;;;;;0.40;0.40;;;;;;;5.77;81.90;103535.31;5047772;28;20033;-70
2022/01/17 09:12:56;;;;;;;0.30;0.30;;;;;;;5.81;81.98;103536.50;5046058;28;20035;-71
2022/01/17 09:15:22;;;;;;;0.30;0.30;;;;;;;5.83;81.90;103541.06;5045664;28;20156;-73
2022/01/17 09:17:47;;;;;;;0.50;0.50;;;;;;;5.85;81.53;103551.63;5038963;28;20025;-72
2022/01/17 09:20:13;;;;;;;0.40;0.40;;;;;;;5.85;81.53;103555.13;5038935;28;20288;-69
2022/01/17 09:22:38;;;;;;;0.40;0.40;;;;;;;5.90;81.93;103552.94;5038872;28;20033;-72
2022/01/17 09:25:06;;;;;;;0.40;0.40;;;;;;;5.93;81.72;103554.91;5038697;28;20040;-72
2022/01/17 09:27:32;;;;;;;0.50;0.50;;;;;;;5.93;81.07;103555.84;5050289;28;20367;-71
2022/01/17 09:29:58;;;;;;;0.40;0.40;;;;;;;5.94;81.28;103567.13;5039771;28;20112;-71
2022/01/17 09:32:23;;;;;;;0.40;0.40;;;;;;;5.98;81.21;103571.84;5039253;28;20100;-75
2022/01/17 09:34:52;;;;;;;0.37;0.37;;;;;;;5.98;81.29;103567.53;5038804;28;20364;-70
2022/01/17 09:37:17;;;;;;;0.40;0.40;;;;;;;5.97;81.32;103557.91;5037994;28;20094;-72
2022/01/17 09:39:43;;;;;;;0.40;0.40;;;;;;;5.99;81.06;103574.56;5052849;28;20033;-75
2022/01/17 09:42:09;;;;;;;0.40;0.40;;;;;;;6.03;81.12;103560.19;5040641;28;20021;-71
2022/01/17 09:44:35;;;;;;;0.40;0.40;;;;;;;6.07;80.76;103559.72;5038824;28;20425;-72
2022/01/17 09:47:04;;;;;;;0.37;0.37;;;;;;;6.11;80.94;103561.78;5038556;28;20014;-71
2022/01/17 09:49:36;;;;;;;0.40;0.40;;;;;;;6.10;81.08;103588.59;5038477;28;20303;-70
2022/01/17 09:52:13;;;;;;;0.30;0.30;;;;;;;6.10;81.27;103583.38;5042674;28;20382;-71
2022/01/17 09:54:40;;;;;;;0.50;0.50;;;;;;;6.16;80.82;103585.66;5037753;28;20368;-71
2022/01/17 09:57:07;;;;;;;0.53;0.53;;;;;;;6.21;80.98;103592.16;5048780;28;20052;-69
2022/01/17 09:59:37;;;;;;;0.47;0.47;;;;;;;6.22;80.39;103585.28;5046295;28;20033;-69
2022/01/17 10:02:04;;;;;;;0.40;0.40;;;;;;;6.23;81.12;103584.50;5037358;28;20372;-71
2022/01/17 10:04:29;;;;;;;0.43;0.43;;;;;;;6.27;81.08;103594.41;5037166;28;20025;-70
2022/01/17 10:06:58;;;;;;;0.43;0.43;;;;;;;6.27;80.85;103605.75;5038217;28;20025;-70
2022/01/17 10:09:25;;;;;;;0.33;0.33;;;;;;;6.31;80.78;103593.94;5043221;28;20028;-70
2022/01/17 10:12:08;;;;;;;0.50;0.50;;;;;;;6.36;80.98;103609.94;5047710;28;20032;-72
2022/01/17 10:14:41;;;;;;;0.40;0.40;;;;;;;6.39;80.21;103602.41;5041325;28;20025;-71
2022/01/17 10:17:11;;;;;;;0.40;0.40;;;;;;;6.44;81.06;103602.06;5037411;28;20044;-70
2022/01/17 10:19:37;;;;;;;0.50;0.50;;;;;;;6.47;80.96;103611.81;5038732;28;20036;-69
2022/01/17 10:22:11;;;;;;;0.50;0.50;;;;;;;6.50;80.37;103614.72;5042526;28;20077;-71
2022/01/17 10:30:33;;;;;;;0.30;0.30;;;;;;;6.56;80.45;103617.88;5039981;28;20048;-69
2022/01/17 10:35:33;;;;;;;0.60;0.60;;;;;;;6.66;80.35;103634.31;5049573;28;20587;-70
2022/01/17 10:38:10;;;;;;;0.50;0.50;;;;;;;6.68;80.21;103623.25;5058365;28;20025;-67
2022/01/17 10:40:40;;;;;;;0.60;0.60;;;;;;;6.68;79.71;103618.06;5046219;28;20039;-70
2022/01/17 10:43:06;;;;;;;0.50;0.50;;;;;;;6.70;79.34;103620.78;5058146;28;20032;-70
2022/01/17 10:45:41;;;;;;;0.50;0.50;;;;;;;6.70;79.59;103611.28;5048699;28;20033;-69
2022/01/17 10:48:07;;;;;;;0.40;0.40;;;;;;;6.74;79.71;103621.19;5037427;28;20056;-70
2022/01/17 10:50:35;;;;;;;0.50;0.50;;;;;;;6.79;79.73;103618.09;5037768;28;20033;-69
2022/01/17 10:53:06;;;;;;;0.43;0.43;;;;;;;6.79;79.63;103631.09;5043734;28;20253;-70
2022/01/17 10:55:34;;;;;;;0.50;0.50;;;;;;;6.83;79.30;103630.59;5042658;28;20083;-70
2022/01/17 10:58:28;;;;;;;0.40;0.40;;;;;;;6.80;79.41;103631.22;5044052;28;20021;-70
2022/01/17 11:00:59;;;;;;;0.50;0.50;;;;;;;6.80;79.09;103638.13;5054559;28;20048;-71
2022/01/17 11:03:28;;;;;;;0.43;0.43;;;;;;;6.83;79.18;103636.72;5057262;28;20025;-71
2022/01/17 11:05:55;;;;;;;0.50;0.50;;;;;;;6.85;78.98;103644.69;5056621;28;20044;-71
2022/01/17 11:08:23;;;;;;;0.40;0.40;;;;;;;6.90;78.86;103645.97;5057472;28;20025;-70
2022/01/17 11:10:53;;;;;;;0.70;0.70;;;;;;;6.94;78.71;103661.13;5039535;28;20021;-69
2022/01/17 11:13:21;;;;;;;0.40;0.40;;;;;;;6.97;78.60;103653.56;5050345;28;20368;-70
2022/01/17 11:16:00;;;;;;;0.50;0.50;;;;;;;6.97;78.80;103655.28;5036315;28;20585;-71
2022/01/17 11:18:28;;;;;;;0.40;0.40;;;;;;;6.96;79.00;103661.22;5037355;28;20025;-72
2022/01/17 11:21:11;;;;;;;0.30;0.30;;;;;;;6.95;78.28;103659.41;5036995;28;20025;-69
2022/01/17 11:23:37;;;;;;;0.50;0.50;;;;;;;6.95;78.75;103657.72;5036575;28;20348;-69
2022/01/17 11:26:05;;;;;;;0.40;0.40;;;;;;;6.96;78.58;103656.03;5036459;28;20025;-68
2022/01/17 11:28:34;;;;;;;0.40;0.40;;;;;;;6.99;78.58;103651.09;5036270;28;20358;-70
2022/01/17 11:31:04;;;;;;;0.37;0.37;;;;;;;6.95;78.71;103644.69;5037015;28;20026;-71
2022/01/17 11:33:29;;;;;;;0.60;0.60;;;;;;;6.93;78.88;103654.09;5053068;28;20021;-71
2022/01/17 11:35:55;;;;;;;0.50;0.50;;;;;;;6.96;78.50;103654.34;5043107;28;20072;-70
2022/01/17 11:38:28;;;;;;;0.53;0.53;;;;;;;6.95;78.88;103654.19;5036451;28;20059;-69
2022/01/17 11:40:54;;;;;;;0.40;0.40;;;;;;;6.96;78.70;103658.63;5041769;28;20021;-69
2022/01/17 11:43:35;;;;;;;0.60;0.60;;;;;;;6.97;79.05;103663.97;5056734;28;20025;-68
2022/01/17 11:46:26;;;;;;;0.57;0.57;;;;;;;7.03;79.03;103662.72;5058275;28;20017;-70
2022/01/17 11:48:53;;;;;;;0.40;0.40;;;;;;;7.09;78.44;103645.00;5060098;28;20075;-72
2022/01/17 11:51:22;;;;;;;0.50;0.50;;;;;;;7.13;78.08;103670.53;5056362;28;20206;-69
2022/01/17 11:53:49;;;;;;;0.53;0.53;;;;;;;7.15;77.96;103687.22;5056788;28;20085;-71
2022/01/17 11:56:39;;;;;;;0.40;0.40;;;;;;;7.18;78.26;103681.38;5042672;28;20074;-71
2022/01/17 11:59:38;;;;;;;0.57;0.57;;;;;;;7.19;78.29;103696.22;5061840;28;20039;-70